EGXCEGNO

Guest
Details From EGXC - RAF Coningsby
To EGNO - Warton Aerodrome
Flight Number -
Tags generated
Created
Modified
Stats Distance 105 nm / 194 km
Max Altitude 6,900 ft / 2,103 m
Waypoints 3
Social Downloads 0
Likes 0
Share VATSIM

Download

Looking for another format? Having issues loading an existing format? Contact us
Advertisement - Login to hide

Notes

Basic altitude profile: - Ascent Rate: 2500ft/min - Ascent Speed: 250kts - Cruise Altitude: 16000ft - Cruise Speed: 420kts - Descent Rate: 1500ft/min - Descent Speed: 250kts Options: - Use NATs: yes - Use PACOTS: yes - Use low airways: yes - Use high airways: no

Route

EGXC POL11 EGNO

ID Type Via Altitude Latitude Longitude Leg Dist Tot Dist Heading (true) Name
O EGXC APT - 0 ft / 0 m 53.09316˚ -0.16613˚ - 0 nm - RAF Coningsby
POL11 FIX - 6,900 ft / 2,103 m 53.55778˚ -2.03028˚ 72 nm 72 nm 293° / 292° -
O EGNO APT - 0 ft / 0 m 53.74494˚ -2.88384˚ 32 nm 104 nm 291° / 290° Warton Aerodrome

Altitude Profile

Advertisement - Login to hide

EGXC

Details ICAO EGXC (QCY)
Name RAF Coningsby
Region United Kingdom
Timezone Europe/London (UTC+0.0)
Stats Elevation 25 ft / 8 m (AMSL)
Location 53.093165° -0.166128°
Runways 1
Magnetic Variation 0.641° W

METAR

EGXC 151350Z 32014KT 9999 FEW013 05/02 Q1000 BLU TEMPO -SHRA BKN018 WHT

Decode

TAF

TAF EGXC 151317Z 1515/1609 32013KT 9999 FEW020 PROB40 TEMPO 1515/1517 33015G25KT 7000 SHRA BKN016 PROB30 TEMPO 1517/1522 SCT016

Decode

Departure Runways

ID Width Length Bearing (true) Bearing (mag) Surface Threshold Offset Overrun Length
08 200 ft / 61 m 8,962 ft / 2,732 m 71.85° 72.49° Concrete 0 ft / 0 m 0 ft / 0 m
26 200 ft / 61 m 8,962 ft / 2,732 m 251.89° 252.53° Concrete 0 ft / 0 m 0 ft / 0 m

EGNO

Details ICAO EGNO
Name Warton Aerodrome
Region United Kingdom
Timezone Europe/London (UTC+0.0)
Stats Elevation 55 ft / 17 m (AMSL)
Location 53.744940° -2.883840°
Runways 1
Magnetic Variation 1.749° W

METAR

EGNO 151420Z 35008KT 9999 FEW028 06/02 Q1006

Decode

TAF

Not found

Destination Runways

ID Width Length Bearing (true) Bearing (mag) Surface Threshold Offset Overrun Length
08 151 ft / 46 m 7,906 ft / 2,410 m 71.11° 72.86° Asphalt 190 ft / 58 m 0 ft / 0 m
26 151 ft / 46 m 7,906 ft / 2,410 m 251.14° 252.89° Asphalt 0 ft / 0 m 0 ft / 0 m

Approach Navaids

Runway Type Ident Frequency Range Bearing (true) Bearing (mag) Slope Elevation
26 Localiser IWQ 109.90 MHz 18 nm / 33 km 251.10° 252.85° - 55 ft / 17 m (AMSL)
26 Glidescope IWQ 109.90 MHz 10 nm / 19 km 251.13° 252.87° 3.00° 55 ft / 17 m (AMSL)
26 DME IWQ 109.90 MHz 18 nm / 33 km - - - 55 ft / 17 m (AMSL)